N403BG LEGE-LELL
Flight info
| Callsign | N403BG |
|---|---|
| Flight time | 0h 22m |
| Altitude | 2500 |
| Route | VFR |
| Aircraft | C172/L-SGO/C |
Departure
| Time | 2026-05-05 17:52 |
|---|---|
| Airport | Girona-Costa Brava Airport (LEGE) |
Arrival
| Time | 2026-05-05 18:15 |
|---|---|
| Airport | Sabadell Airfield (LELL) |
| Time | Latitude | Longitude | Altitude | Speed | Heading |
|---|---|---|---|---|---|
| 2026-05-05 17:36 | 41.90272 | 2.76479 | 433 ft | 0 kts | 195° |
| 2026-05-05 17:44 | 41.90262 | 2.76475 | 433 ft | 3 kts | 200° |
| 2026-05-05 17:44 | 41.90249 | 2.76465 | 426 ft | 2 kts | 228° |
| 2026-05-05 17:44 | 41.90233 | 2.76445 | 425 ft | 5 kts | 217° |
| 2026-05-05 17:45 | 41.90195 | 2.76397 | 423 ft | 9 kts | 245° |
| 2026-05-05 17:45 | 41.90191 | 2.76377 | 428 ft | 1 kts | 256° |
| 2026-05-05 17:45 | 41.90202 | 2.76341 | 429 ft | 10 kts | 329° |
| 2026-05-05 17:45 | 41.90283 | 2.76357 | 427 ft | 14 kts | 15° |
| 2026-05-05 17:46 | 41.90396 | 2.76399 | 439 ft | 19 kts | 16° |
| 2026-05-05 17:46 | 41.90446 | 2.76417 | 441 ft | 21 kts | 16° |
| 2026-05-05 17:46 | 41.90606 | 2.76484 | 449 ft | 26 kts | 18° |
| 2026-05-05 17:46 | 41.90791 | 2.76553 | 459 ft | 30 kts | 12° |
| 2026-05-05 17:47 | 41.90990 | 2.76627 | 469 ft | 27 kts | 16° |
| 2026-05-05 17:47 | 41.91148 | 2.76689 | 474 ft | 22 kts | 15° |
| 2026-05-05 17:47 | 41.91291 | 2.76748 | 470 ft | 22 kts | 17° |
| 2026-05-05 17:47 | 41.91429 | 2.76788 | 465 ft | 17 kts | 9° |
| 2026-05-05 17:48 | 41.91516 | 2.76775 | 463 ft | 11 kts | 310° |
| 2026-05-05 17:48 | 41.91521 | 2.76764 | 463 ft | 0 kts | 281° |
| 2026-05-05 17:49 | 41.91531 | 2.76727 | 463 ft | 14 kts | 289° |
| 2026-05-05 17:49 | 41.91533 | 2.76598 | 465 ft | 9 kts | 210° |
| 2026-05-05 17:50 | 41.91504 | 2.76585 | 466 ft | 0 kts | 198° |
| 2026-05-05 17:51 | 41.91488 | 2.76580 | 466 ft | 14 kts | 194° |
| 2026-05-05 17:51 | 41.91232 | 2.76484 | 474 ft | 61 kts | 195° |
| 2026-05-05 17:51 | 41.90745 | 2.76298 | 583 ft | 79 kts | 196° |
| 2026-05-05 17:51 | 41.90217 | 2.76108 | 785 ft | 81 kts | 195° |
| 2026-05-05 17:52 | 41.89672 | 2.75936 | 1030 ft | 79 kts | 200° |
| 2026-05-05 17:52 | 41.89248 | 2.75460 | 1227 ft | 84 kts | 233° |
| 2026-05-05 17:52 | 41.88900 | 2.74773 | 1383 ft | 91 kts | 232° |
| 2026-05-05 17:52 | 41.88516 | 2.74069 | 1574 ft | 93 kts | 230° |
| 2026-05-05 17:53 | 41.88122 | 2.73391 | 1807 ft | 89 kts | 230° |
| 2026-05-05 17:53 | 41.87732 | 2.72729 | 1941 ft | 96 kts | 227° |
| 2026-05-05 17:53 | 41.87281 | 2.72015 | 1953 ft | 105 kts | 225° |
| 2026-05-05 17:53 | 41.86785 | 2.71326 | 2047 ft | 102 kts | 224° |
| 2026-05-05 17:54 | 41.86274 | 2.70633 | 2072 ft | 107 kts | 223° |
| 2026-05-05 17:54 | 41.85755 | 2.69867 | 2029 ft | 114 kts | 230° |
| 2026-05-05 17:54 | 41.85274 | 2.69020 | 2038 ft | 114 kts | 230° |
| 2026-05-05 17:54 | 41.84802 | 2.68190 | 2102 ft | 110 kts | 229° |
| 2026-05-05 17:55 | 41.84321 | 2.67393 | 2121 ft | 110 kts | 227° |
| 2026-05-05 17:55 | 41.83808 | 2.66606 | 2101 ft | 113 kts | 227° |
| 2026-05-05 17:55 | 41.83270 | 2.65830 | 2106 ft | 114 kts | 225° |
| 2026-05-05 17:55 | 41.82716 | 2.65053 | 2041 ft | 117 kts | 226° |
| 2026-05-05 17:56 | 41.82161 | 2.64247 | 2013 ft | 116 kts | 225° |
| 2026-05-05 17:56 | 41.81634 | 2.63446 | 2042 ft | 112 kts | 229° |
| 2026-05-05 17:56 | 41.81157 | 2.62643 | 2141 ft | 108 kts | 231° |
| 2026-05-05 17:56 | 41.80681 | 2.61897 | 2228 ft | 106 kts | 225° |
| 2026-05-05 17:57 | 41.80164 | 2.61163 | 2254 ft | 108 kts | 221° |
| 2026-05-05 17:57 | 41.79618 | 2.60476 | 2259 ft | 110 kts | 227° |
| 2026-05-05 17:57 | 41.79161 | 2.59662 | 2271 ft | 112 kts | 236° |
| 2026-05-05 17:57 | 41.78992 | 2.58571 | 2069 ft | 124 kts | 269° |
| 2026-05-05 17:58 | 41.78930 | 2.57681 | 2537 ft | 86 kts | 251° |
| 2026-05-05 17:58 | 41.78895 | 2.56731 | 2435 ft | 107 kts | 283° |
| 2026-05-05 17:58 | 41.78804 | 2.55892 | 2761 ft | 85 kts | 232° |
| 2026-05-05 17:58 | 41.78483 | 2.55345 | 2887 ft | 85 kts | 239° |
| 2026-05-05 17:59 | 41.77958 | 2.54685 | 2572 ft | 117 kts | 207° |
| 2026-05-05 17:59 | 41.77212 | 2.54300 | 2619 ft | 114 kts | 199° |
| 2026-05-05 17:59 | 41.76474 | 2.53947 | 2673 ft | 111 kts | 207° |
| 2026-05-05 17:59 | 41.75863 | 2.53325 | 2641 ft | 112 kts | 231° |
| 2026-05-05 18:00 | 41.75440 | 2.52345 | 2468 ft | 122 kts | 233° |
| 2026-05-05 18:00 | 41.74792 | 2.51727 | 2529 ft | 113 kts | 210° |
| 2026-05-05 18:00 | 41.74188 | 2.51041 | 2491 ft | 117 kts | 233° |
| 2026-05-05 18:00 | 41.73767 | 2.50082 | 2371 ft | 121 kts | 243° |
| 2026-05-05 18:01 | 41.73347 | 2.49012 | 1897 ft | 137 kts | 238° |
| 2026-05-05 18:01 | 41.72854 | 2.48002 | 1707 ft | 130 kts | 236° |
| 2026-05-05 18:01 | 41.72195 | 2.47219 | 1538 ft | 124 kts | 217° |
| 2026-05-05 18:01 | 41.71546 | 2.46533 | 1511 ft | 115 kts | 222° |
| 2026-05-05 18:02 | 41.71160 | 2.46046 | 1488 ft | 115 kts | 224° |
| 2026-05-05 18:02 | 41.70783 | 2.45572 | 1486 ft | 113 kts | 225° |
| 2026-05-05 18:02 | 41.70275 | 2.44766 | 1475 ft | 113 kts | 236° |
| 2026-05-05 18:02 | 41.69841 | 2.43939 | 1561 ft | 107 kts | 234° |
| 2026-05-05 18:03 | 41.69401 | 2.43157 | 1639 ft | 104 kts | 232° |
| 2026-05-05 18:03 | 41.68936 | 2.42417 | 1705 ft | 103 kts | 228° |
| 2026-05-05 18:03 | 41.68442 | 2.41723 | 1757 ft | 102 kts | 227° |
| 2026-05-05 18:03 | 41.67970 | 2.41026 | 1833 ft | 101 kts | 227° |
| 2026-05-05 18:04 | 41.67488 | 2.40317 | 1879 ft | 104 kts | 228° |
| 2026-05-05 18:04 | 41.67016 | 2.39595 | 1941 ft | 103 kts | 232° |
| 2026-05-05 18:04 | 41.66598 | 2.38809 | 1998 ft | 104 kts | 234° |
| 2026-05-05 18:04 | 41.66206 | 2.37993 | 2078 ft | 103 kts | 238° |
| 2026-05-05 18:05 | 41.65833 | 2.37186 | 2157 ft | 104 kts | 237° |
| 2026-05-05 18:05 | 41.65436 | 2.36373 | 2239 ft | 103 kts | 237° |
| 2026-05-05 18:05 | 41.65050 | 2.35560 | 2307 ft | 105 kts | 238° |
| 2026-05-05 18:05 | 41.64659 | 2.34741 | 2352 ft | 107 kts | 237° |
| 2026-05-05 18:06 | 41.64225 | 2.33913 | 2352 ft | 110 kts | 234° |
| 2026-05-05 18:06 | 41.63926 | 2.33350 | 2318 ft | 114 kts | 234° |
| 2026-05-05 18:06 | 41.63303 | 2.32169 | 2236 ft | 118 kts | 237° |
| 2026-05-05 18:06 | 41.62835 | 2.31247 | 2144 ft | 121 kts | 235° |
| 2026-05-05 18:07 | 41.62350 | 2.30315 | 2087 ft | 123 kts | 236° |
| 2026-05-05 18:07 | 41.61864 | 2.29367 | 2012 ft | 125 kts | 236° |
| 2026-05-05 18:07 | 41.61368 | 2.28415 | 1944 ft | 123 kts | 236° |
| 2026-05-05 18:07 | 41.60880 | 2.27477 | 1881 ft | 123 kts | 234° |
| 2026-05-05 18:08 | 41.60394 | 2.26545 | 1879 ft | 121 kts | 234° |
| 2026-05-05 18:08 | 41.59911 | 2.25665 | 1923 ft | 116 kts | 235° |
| 2026-05-05 18:08 | 41.59429 | 2.24823 | 1973 ft | 113 kts | 231° |
| 2026-05-05 18:08 | 41.58945 | 2.23994 | 1973 ft | 115 kts | 230° |
| 2026-05-05 18:09 | 41.58453 | 2.23110 | 1889 ft | 122 kts | 233° |
| 2026-05-05 18:09 | 41.57964 | 2.22162 | 1820 ft | 124 kts | 234° |
| 2026-05-05 18:09 | 41.57443 | 2.21237 | 1707 ft | 128 kts | 230° |
| 2026-05-05 18:09 | 41.56844 | 2.20324 | 1559 ft | 132 kts | 229° |
| 2026-05-05 18:10 | 41.56224 | 2.19452 | 1504 ft | 128 kts | 225° |
| 2026-05-05 18:10 | 41.55609 | 2.18613 | 1431 ft | 127 kts | 227° |
| 2026-05-05 18:10 | 41.55108 | 2.17662 | 1470 ft | 120 kts | 242° |
| 2026-05-05 18:10 | 41.54729 | 2.16703 | 1532 ft | 116 kts | 244° |
| 2026-05-05 18:11 | 41.54347 | 2.15723 | 1474 ft | 122 kts | 242° |
| 2026-05-05 18:11 | 41.53915 | 2.14741 | 1448 ft | 123 kts | 239° |
| 2026-05-05 18:11 | 41.53471 | 2.13788 | 1401 ft | 123 kts | 239° |
| 2026-05-05 18:11 | 41.52924 | 2.12972 | 1393 ft | 119 kts | 197° |
| 2026-05-05 18:12 | 41.52197 | 2.13383 | 1350 ft | 119 kts | 141° |
| 2026-05-05 18:12 | 41.51544 | 2.14069 | 1306 ft | 122 kts | 142° |
| 2026-05-05 18:12 | 41.50829 | 2.14715 | 1238 ft | 117 kts | 145° |
| 2026-05-05 18:12 | 41.50197 | 2.15081 | 1173 ft | 89 kts | 187° |
| 2026-05-05 18:13 | 41.49740 | 2.14661 | 1086 ft | 69 kts | 242° |
| 2026-05-05 18:13 | 41.49893 | 2.14122 | 1044 ft | 71 kts | 319° |
| 2026-05-05 18:13 | 41.50265 | 2.13651 | 1023 ft | 77 kts | 313° |
| 2026-05-05 18:13 | 41.50614 | 2.13090 | 987 ft | 76 kts | 308° |
| 2026-05-05 18:14 | 41.50937 | 2.12517 | 890 ft | 80 kts | 309° |
| 2026-05-05 18:14 | 41.51263 | 2.11960 | 758 ft | 70 kts | 308° |
| 2026-05-05 18:14 | 41.51535 | 2.11484 | 639 ft | 62 kts | 308° |
| 2026-05-05 18:14 | 41.51808 | 2.11000 | 505 ft | 66 kts | 308° |
| 2026-05-05 18:15 | 41.52040 | 2.10593 | 474 ft | 43 kts | 307° |
| 2026-05-05 18:15 | 41.52164 | 2.10362 | 478 ft | 15 kts | 294° |
| 2026-05-05 18:15 | 41.52180 | 2.10266 | 475 ft | 10 kts | 264° |
| 2026-05-05 18:15 | 41.52146 | 2.10203 | 473 ft | 9 kts | 154° |
| 2026-05-05 18:16 | 41.52111 | 2.10257 | 473 ft | 7 kts | 129° |
| 2026-05-05 18:16 | 41.52096 | 2.10301 | 472 ft | 4 kts | 38° |
| 2026-05-05 18:16 | 41.52102 | 2.10306 | 472 ft | 0 kts | 46° |